Etusivu
METAR-TAF:

METAR-TAF

Lentoasemat :

Dubuque, Iowa, Yhdysvallat

Leveyspiiri: 42-23-52N, Pituuspiiri: 090-42-13W, korkeus merenpinnasta: 328 m

Tämänhetkinen sää

Tämä raportti tehtiin 1 tunti ja 0 minuuttia sitten, kello 08.53 UTC
Tuuli 7 kn pohjoisesta/koillisesta
Lämpötila -12°C
Kosteus 72%
Ilmanpaine 1033 hPa
Näkyvyys: 16.1 km
selkeää

METAR: KDBQ 190853Z AUTO 02007KT 10SM CLR M12/M16 A3049 RMK AO2 SLP345 T11221156 50012

Aika: 03:53 (09:53 UTC)

Sääennuste

Tämä raportti tehtiin 4 tuntia ja 33 minuuttia sitten, kello 05.20 UTC
Ennuste voimassa 19. päivästä klo 06 UTC - 20. päivään klo 06 UTC
Tuuli 10 kn luoteesta
Näkyvyys: 10 km
selkeää
From 19. päivästä klo 1500 UTC
Tuuli 8 kn pohjoisen/luoteesta
Näkyvyys: 10 km
Hajanaisia pilviä 2500 ft:n korkeudessa
Hajonneita pilviä 4000 ft:n korkeudessa

TAF: KDBQ 190520Z 1906/2006 32010KT P6SM SKC FM191500 34008KT P6SM SCT025 BKN040

Säähavainnot ja -ennusteet yli 4000 lentoasemalta (METAR- ja TAF-raportit).

Käytössä olevat sääasemat on merkitty karttaan keltaisilla ja punaisilla pisteillä.

Aseta hiiri pisteen päälle nähdäksesi sääaseman nimen.

Klikkaa sitten nähdäksesi säähavainnot ja -ennusteet.

Kartan vaihtaminen: klikkaa mustalla rastilla varustettuja vihreitä pisteitä, niin voit zoomata sisään; viivalla varustettua vihreää pistettä, niin voit zoomata ulos tai vihreitä nuolia, niin pääset viereisille kartoille.


METAR-TAF: